createdAt,value
2018-03-30T00:00:52.389Z,52.80
2018-03-30T00:03:19.925Z,53.00
2018-03-30T00:05:47.523Z,52.90
2018-03-30T00:08:15.125Z,52.90
2018-03-30T00:10:59.443Z,53.10
2018-03-30T00:13:26.981Z,53.40
2018-03-30T00:15:54.535Z,53.40
2018-03-30T00:18:23.572Z,53.40
2018-03-30T00:20:51.940Z,53.40
2018-03-30T00:23:20.050Z,53.20
2018-03-30T00:25:47.622Z,53.20
2018-03-30T00:28:15.283Z,53.40
2018-03-30T00:30:43.851Z,53.60
2018-03-30T00:33:11.413Z,53.50
2018-03-30T00:35:38.977Z,53.20
2018-03-30T00:38:06.503Z,53.40
2018-03-30T00:40:34.059Z,53.00
2018-03-30T00:43:01.578Z,53.70
2018-03-30T00:45:29.169Z,52.90
2018-03-30T00:47:57.564Z,53.00
2018-03-30T00:50:25.148Z,53.10
2018-03-30T00:52:52.679Z,52.70
2018-03-30T00:55:20.198Z,52.50
2018-03-30T00:57:47.754Z,52.60
2018-03-30T01:00:16.037Z,52.70
2018-03-30T01:02:43.582Z,52.70
2018-03-30T01:05:11.199Z,52.90
2018-03-30T01:07:38.751Z,53.10
2018-03-30T01:10:06.523Z,53.00
2018-03-30T01:12:34.085Z,52.90
2018-03-30T01:15:01.602Z,53.30
2018-03-30T01:17:29.139Z,53.40
2018-03-30T01:19:57.027Z,53.10
2018-03-30T01:22:24.581Z,52.50
2018-03-30T01:24:52.129Z,52.80
2018-03-30T01:27:19.704Z,52.70
2018-03-30T01:29:47.507Z,52.50
2018-03-30T01:32:15.071Z,52.70
2018-03-30T01:34:42.732Z,53.10
2018-03-30T01:37:10.387Z,53.30
2018-03-30T01:39:38.955Z,53.50
2018-03-30T01:42:06.510Z,53.20
2018-03-30T01:44:34.075Z,53.40
2018-03-30T01:47:01.597Z,53.40
2018-03-30T01:49:29.160Z,53.40
2018-03-30T01:51:56.969Z,53.40
2018-03-30T01:54:24.487Z,53.30
2018-03-30T01:56:52.045Z,53.30
2018-03-30T01:59:19.573Z,53.40
2018-03-30T02:01:47.116Z,52.90
2018-03-30T02:04:14.661Z,52.60
2018-03-30T02:06:42.213Z,52.80
2018-03-30T02:09:09.801Z,53.00
2018-03-30T02:11:37.368Z,52.80
2018-03-30T02:14:05.009Z,53.20
2018-03-30T02:16:32.588Z,53.30
2018-03-30T02:19:01.146Z,53.60
2018-03-30T02:21:28.678Z,53.60
2018-03-30T02:23:56.288Z,53.40
2018-03-30T02:26:23.817Z,53.30
2018-03-30T02:28:51.367Z,53.00
2018-03-30T02:31:19.872Z,53.20
2018-03-30T02:33:47.527Z,53.20
2018-03-30T02:36:15.070Z,53.30
2018-03-30T02:38:42.751Z,52.80
2018-03-30T02:41:10.372Z,53.30
2018-03-30T02:43:37.903Z,53.50
2018-03-30T02:46:05.465Z,53.50
2018-03-30T02:48:33.014Z,53.40
2018-03-30T02:51:00.576Z,53.50
2018-03-30T02:53:28.131Z,53.80
2018-03-30T02:55:55.636Z,53.30
2018-03-30T02:58:23.196Z,53.60
2018-03-30T03:00:50.769Z,53.80
2018-03-30T03:03:18.319Z,53.60
2018-03-30T03:05:45.877Z,53.50
2018-03-30T03:08:13.795Z,53.50
2018-03-30T03:10:41.324Z,53.70
2018-03-30T03:13:09.172Z,53.70
2018-03-30T03:15:36.729Z,53.50
2018-03-30T03:18:05.074Z,53.70
2018-03-30T03:20:33.694Z,53.30
2018-03-30T03:23:01.250Z,53.30
2018-03-30T03:25:29.527Z,53.30
2018-03-30T03:27:57.086Z,53.20
2018-03-30T03:30:25.365Z,53.70
2018-03-30T03:32:52.907Z,53.60
2018-03-30T03:35:20.467Z,53.70
2018-03-30T03:37:47.994Z,53.50
2018-03-30T03:40:15.538Z,53.60
2018-03-30T03:42:43.090Z,53.90
2018-03-30T03:45:10.678Z,53.80
2018-03-30T03:47:38.200Z,53.80
2018-03-30T03:50:06.604Z,53.70
2018-03-30T03:52:34.160Z,53.70
2018-03-30T03:55:01.720Z,54.30
2018-03-30T03:57:29.281Z,53.90
2018-03-30T03:59:56.842Z,54.00
2018-03-30T04:02:24.363Z,53.80
2018-03-30T04:04:51.948Z,54.20
2018-03-30T04:07:19.454Z,54.20
2018-03-30T04:09:47.029Z,54.20
2018-03-30T04:12:14.555Z,53.70
2018-03-30T04:14:42.113Z,53.90
2018-03-30T04:17:09.663Z,53.60
2018-03-30T04:19:37.182Z,53.50
2018-03-30T04:22:04.761Z,53.20
2018-03-30T04:24:32.278Z,52.90
2018-03-30T04:26:59.848Z,53.10
2018-03-30T04:29:28.176Z,53.40
2018-03-30T04:31:56.506Z,54.00
2018-03-30T04:34:24.830Z,54.30
2018-03-30T04:36:52.356Z,54.30
2018-03-30T04:39:19.920Z,54.30
2018-03-30T04:41:47.480Z,54.30
2018-03-30T04:44:15.042Z,54.30
2018-03-30T04:46:42.604Z,53.90
2018-03-30T04:49:10.148Z,53.80
2018-03-30T04:51:37.982Z,53.70
2018-03-30T04:54:05.547Z,53.90
2018-03-30T04:56:33.120Z,54.10
2018-03-30T04:59:00.738Z,53.70
2018-03-30T05:01:28.297Z,54.00
2018-03-30T05:03:55.858Z,54.20
2018-03-30T05:06:23.383Z,54.10
2018-03-30T05:08:50.949Z,53.90
2018-03-30T05:11:18.475Z,53.90
2018-03-30T05:13:46.124Z,54.10
2018-03-30T05:16:13.666Z,54.00
2018-03-30T05:18:41.221Z,53.90
2018-03-30T05:21:08.780Z,53.80
2018-03-30T05:23:36.315Z,53.90
2018-03-30T05:26:03.892Z,54.40
2018-03-30T05:28:31.642Z,54.50
2018-03-30T05:30:59.190Z,54.70
2018-03-30T05:33:26.744Z,54.30
2018-03-30T05:35:54.276Z,54.30
2018-03-30T05:38:21.836Z,54.10
2018-03-30T05:40:50.168Z,54.40
2018-03-30T05:43:17.696Z,54.40
2018-03-30T05:45:45.248Z,54.10
2018-03-30T05:48:12.811Z,54.10
2018-03-30T05:50:40.320Z,53.60
2018-03-30T05:53:07.883Z,53.30
2018-03-30T05:55:35.568Z,53.10
2018-03-30T05:58:03.129Z,53.10
2018-03-30T06:00:30.670Z,53.30
2018-03-30T06:02:58.226Z,53.00
2018-03-30T06:05:25.761Z,53.60
2018-03-30T06:07:53.287Z,54.60
2018-03-30T06:10:20.877Z,55.00
2018-03-30T06:12:48.438Z,54.90
2018-03-30T06:15:16.047Z,54.80
2018-03-30T06:17:43.584Z,55.00
2018-03-30T06:20:11.139Z,54.90
2018-03-30T06:22:38.668Z,55.20
2018-03-30T06:25:06.234Z,55.40
2018-03-30T06:27:33.823Z,55.30
2018-03-30T06:30:01.354Z,55.10
2018-03-30T06:32:28.920Z,55.10
2018-03-30T06:34:56.474Z,54.80
2018-03-30T06:37:24.014Z,54.40
2018-03-30T06:39:51.637Z,54.60
2018-03-30T06:42:19.158Z,54.70
2018-03-30T06:44:46.730Z,55.00
2018-03-30T06:47:14.381Z,55.30
2018-03-30T06:49:41.906Z,55.10
2018-03-30T06:52:10.417Z,55.10
2018-03-30T06:54:37.981Z,55.10
2018-03-30T06:57:05.562Z,55.00
2018-03-30T06:59:33.092Z,54.90
2018-03-30T07:02:00.675Z,54.80
2018-03-30T07:04:28.241Z,54.60
2018-03-30T07:06:55.796Z,54.60
2018-03-30T07:09:23.344Z,54.40
2018-03-30T07:11:50.896Z,54.20
2018-03-30T07:14:18.456Z,54.00
2018-03-30T07:16:46.358Z,53.70
2018-03-30T07:19:13.904Z,53.60
2018-03-30T07:21:41.446Z,53.30
2018-03-30T07:24:09.023Z,53.20
2018-03-30T07:26:36.582Z,53.10
2018-03-30T07:29:04.155Z,53.30
2018-03-30T07:31:32.541Z,53.50
2018-03-30T07:34:00.914Z,53.20
2018-03-30T07:36:28.472Z,53.20
2018-03-30T07:38:56.014Z,52.20
2018-03-30T07:41:23.936Z,51.70
2018-03-30T07:43:52.883Z,51.10
2018-03-30T07:46:20.431Z,51.00
2018-03-30T07:48:47.993Z,50.60
2018-03-30T07:51:15.601Z,50.20
2018-03-30T07:53:43.914Z,49.40
2018-03-30T07:56:11.509Z,49.40
2018-03-30T07:58:39.066Z,49.20
2018-03-30T08:01:06.608Z,48.60
2018-03-30T08:03:34.186Z,48.40
2018-03-30T08:06:01.691Z,47.90
2018-03-30T08:08:29.305Z,47.60
2018-03-30T08:10:56.954Z,47.10
2018-03-30T08:13:24.521Z,46.90
2018-03-30T08:15:52.136Z,46.70
2018-03-30T08:18:19.659Z,46.70
2018-03-30T08:20:47.241Z,46.20
2018-03-30T08:23:15.574Z,45.80
2018-03-30T08:25:43.152Z,45.80
2018-03-30T08:28:10.887Z,44.70
2018-03-30T08:30:38.457Z,44.60
2018-03-30T08:33:05.980Z,43.60
2018-03-30T08:35:33.513Z,43.40
2018-03-30T08:38:01.884Z,43.20
2018-03-30T08:40:29.413Z,43.20
2018-03-30T08:42:57.062Z,42.30
2018-03-30T08:45:24.691Z,43.00
2018-03-30T08:47:52.265Z,42.90
2018-03-30T08:50:19.868Z,42.90
2018-03-30T08:52:47.474Z,42.80
2018-03-30T08:55:15.031Z,42.00
2018-03-30T08:57:43.422Z,42.10
2018-03-30T09:00:10.998Z,42.10
2018-03-30T09:02:38.579Z,41.80
2018-03-30T09:05:06.134Z,41.90
2018-03-30T09:07:33.756Z,41.60
2018-03-30T09:10:01.332Z,41.50
2018-03-30T09:12:28.899Z,41.00
2018-03-30T09:14:56.474Z,41.00
2018-03-30T09:17:24.123Z,41.40
2018-03-30T09:19:51.988Z,41.70
2018-03-30T09:22:19.496Z,41.20
2018-03-30T09:24:47.031Z,40.90
2018-03-30T09:27:14.566Z,40.80
2018-03-30T09:29:47.823Z,41.20
2018-03-30T09:32:15.364Z,40.70
2018-03-30T09:34:42.971Z,40.90
2018-03-30T09:37:10.504Z,40.30
2018-03-30T09:39:38.051Z,40.50
2018-03-30T09:42:05.622Z,40.70
2018-03-30T09:44:33.918Z,40.90
2018-03-30T09:47:01.492Z,40.90
2018-03-30T09:49:29.020Z,40.90
2018-03-30T09:51:56.616Z,40.60
2018-03-30T09:54:24.211Z,40.90
2018-03-30T09:56:51.838Z,41.00
2018-03-30T09:59:20.201Z,40.40
2018-03-30T10:01:51.570Z,40.40
2018-03-30T10:04:23.923Z,40.90
2018-03-30T10:06:51.488Z,40.90
2018-03-30T10:09:19.080Z,40.90
2018-03-30T10:11:46.632Z,40.30
2018-03-30T10:14:14.209Z,40.70
2018-03-30T10:16:41.803Z,40.80
2018-03-30T10:19:09.399Z,40.50
2018-03-30T10:21:37.011Z,40.60
2018-03-30T10:24:04.523Z,39.90
2018-03-30T10:26:32.085Z,39.60
2018-03-30T10:28:59.634Z,39.60
2018-03-30T10:31:27.764Z,40.10
2018-03-30T10:33:55.311Z,40.00
2018-03-30T10:36:23.753Z,40.00
2018-03-30T10:38:51.277Z,40.00
2018-03-30T10:41:19.642Z,39.70
2018-03-30T10:43:48.029Z,39.60
2018-03-30T10:46:16.334Z,39.70
2018-03-30T10:48:43.945Z,39.60
2018-03-30T10:51:11.497Z,39.90
2018-03-30T10:53:39.130Z,39.30
2018-03-30T10:56:06.676Z,39.70
2018-03-30T10:58:34.281Z,39.30
2018-03-30T11:01:01.827Z,38.50
2018-03-30T11:03:29.397Z,39.50
2018-03-30T11:05:56.972Z,39.30
2018-03-30T11:08:25.439Z,39.70
2018-03-30T11:10:53.044Z,39.70
2018-03-30T11:13:20.610Z,39.50
2018-03-30T11:15:48.168Z,39.30
2018-03-30T11:18:15.778Z,39.50
2018-03-30T11:20:43.418Z,39.10
2018-03-30T11:23:10.950Z,38.60
2018-03-30T11:25:38.565Z,38.40
2018-03-30T11:28:06.111Z,37.60
2018-03-30T11:30:33.668Z,37.90
2018-03-30T11:33:01.779Z,37.20
2018-03-30T11:35:30.120Z,37.10
2018-03-30T11:37:57.644Z,37.00
2018-03-30T11:40:25.430Z,37.30
2018-03-30T11:42:53.002Z,36.10
2018-03-30T11:45:20.868Z,36.80
2018-03-30T11:47:48.426Z,36.90
2018-03-30T11:50:16.257Z,37.30
2018-03-30T11:52:43.819Z,36.50
2018-03-30T11:55:11.405Z,36.90
2018-03-30T11:57:39.232Z,37.10
2018-03-30T12:00:06.800Z,37.40
2018-03-30T12:02:34.390Z,37.50
2018-03-30T12:05:01.964Z,37.50
2018-03-30T12:07:29.502Z,38.30
2018-03-30T12:09:57.084Z,38.50
2018-03-30T12:12:24.634Z,38.60
2018-03-30T12:14:52.190Z,38.60
2018-03-30T12:17:20.172Z,39.10
2018-03-30T12:19:47.729Z,39.20
2018-03-30T12:22:15.603Z,39.20
2018-03-30T12:24:43.366Z,38.50
2018-03-30T12:27:10.936Z,38.40
2018-03-30T12:29:38.486Z,38.50
2018-03-30T12:32:06.136Z,38.90
2018-03-30T12:34:33.684Z,39.10
2018-03-30T12:37:01.236Z,39.30
2018-03-30T12:39:28.786Z,39.90
2018-03-30T12:41:56.364Z,39.50
2018-03-30T12:44:23.920Z,39.70
2018-03-30T12:46:51.453Z,39.60
2018-03-30T12:49:19.175Z,40.00
2018-03-30T12:51:46.726Z,40.10
2018-03-30T12:54:14.281Z,39.80
2018-03-30T12:56:42.454Z,39.90
2018-03-30T12:59:10.006Z,40.10
2018-03-30T13:01:37.574Z,39.80
2018-03-30T13:04:05.112Z,39.90
2018-03-30T13:06:32.668Z,40.00
2018-03-30T13:09:00.249Z,39.90
2018-03-30T13:11:29.406Z,40.20
2018-03-30T13:13:56.978Z,40.20
2018-03-30T13:16:24.544Z,40.40
2018-03-30T13:18:52.062Z,40.20
2018-03-30T13:21:19.632Z,40.20
2018-03-30T13:23:47.568Z,40.40
2018-03-30T13:26:15.162Z,39.80
2018-03-30T13:28:42.751Z,39.60
2018-03-30T13:31:10.271Z,39.80
2018-03-30T13:33:37.870Z,39.80
2018-03-30T13:36:05.488Z,39.30
2018-03-30T13:38:33.840Z,39.40
2018-03-30T13:41:01.387Z,39.30
2018-03-30T13:43:28.954Z,39.60
2018-03-30T13:45:56.489Z,38.70
2018-03-30T13:48:24.047Z,38.40
2018-03-30T13:51:12.163Z,37.80
2018-03-30T13:53:42.503Z,37.60
2018-03-30T13:56:12.531Z,38.30
2018-03-30T13:58:42.803Z,38.50
2018-03-30T14:01:13.945Z,38.00
2018-03-30T14:06:58.224Z,37.50
2018-03-30T14:09:40.682Z,38.00
2018-03-30T14:12:15.753Z,37.30
2018-03-30T14:14:43.280Z,37.40
2018-03-30T14:20:28.691Z,37.80
2018-03-30T14:23:12.658Z,37.80
2018-03-30T14:25:43.704Z,37.20
2018-03-30T14:28:11.957Z,37.60
2018-03-30T14:30:49.447Z,35.50
2018-03-30T14:33:22.951Z,36.00
2018-03-30T14:36:09.958Z,36.60
2018-03-30T14:38:38.270Z,36.90
2018-03-30T14:41:05.799Z,36.90
2018-03-30T14:43:37.697Z,37.00
2018-03-30T14:46:07.105Z,37.00
2018-03-30T14:48:34.622Z,37.30
2018-03-30T14:51:19.985Z,37.20
2018-03-30T14:53:48.413Z,37.40
2018-03-30T14:56:24.465Z,37.60
2018-03-30T14:58:52.794Z,37.50
2018-03-30T15:01:23.736Z,37.60
2018-03-30T15:03:53.131Z,38.00
2018-03-30T15:06:21.517Z,38.40
2018-03-30T15:08:51.516Z,38.40
2018-03-30T15:11:25.417Z,38.60
2018-03-30T15:13:53.875Z,39.10
2018-03-30T15:16:36.358Z,39.30
2018-03-30T15:19:06.467Z,39.50
2018-03-30T15:21:45.498Z,39.80
2018-03-30T15:27:25.919Z,39.50
2018-03-30T15:30:10.141Z,39.60
2018-03-30T15:32:54.138Z,39.20
2018-03-30T15:35:24.252Z,39.00
2018-03-30T15:37:52.266Z,38.60
2018-03-30T15:40:25.332Z,38.70
2018-03-30T15:42:55.971Z,37.90
2018-03-30T15:45:35.243Z,37.70
2018-03-30T15:48:03.291Z,38.20
2018-03-30T15:50:30.839Z,38.00
2018-03-30T15:52:58.418Z,38.00
2018-03-30T15:55:26.185Z,38.00
2018-03-30T15:57:53.825Z,38.40
2018-03-30T16:00:21.419Z,38.70
2018-03-30T16:02:48.960Z,38.70
2018-03-30T16:05:16.533Z,38.90
2018-03-30T16:07:44.335Z,39.10
2018-03-30T16:10:12.628Z,39.00
2018-03-30T16:12:40.235Z,39.40
2018-03-30T16:15:07.965Z,39.70
2018-03-30T16:17:35.574Z,39.80
2018-03-30T16:20:02.941Z,40.00
2018-03-30T16:22:30.000Z,40.30
2018-03-30T16:24:57.085Z,40.30
2018-03-30T16:27:24.196Z,40.70
2018-03-30T16:29:51.259Z,40.90
2018-03-30T16:32:18.408Z,40.90
2018-03-30T16:34:46.239Z,41.00
2018-03-30T16:37:13.323Z,41.00
2018-03-30T16:39:41.123Z,41.10
2018-03-30T16:42:08.340Z,41.10
2018-03-30T16:44:35.433Z,41.00
2018-03-30T16:47:02.503Z,41.10
2018-03-30T16:49:29.594Z,41.10
2018-03-30T16:51:56.626Z,41.30
2018-03-30T16:54:23.728Z,41.30
2018-03-30T16:56:50.786Z,41.30
2018-03-30T16:59:17.888Z,41.30
2018-03-30T17:01:45.014Z,41.50
2018-03-30T17:04:12.129Z,41.50
2018-03-30T17:06:39.213Z,41.20
2018-03-30T17:09:07.104Z,40.90
2018-03-30T17:11:34.195Z,40.90
2018-03-30T17:14:01.264Z,41.00
2018-03-30T17:16:28.326Z,40.80
2018-03-30T17:18:55.375Z,40.90
2018-03-30T17:21:22.448Z,41.80
2018-03-30T17:23:49.500Z,41.00
2018-03-30T17:26:16.535Z,41.10
2018-03-30T17:28:43.823Z,40.80
2018-03-30T17:31:10.959Z,40.80
2018-03-30T17:33:38.031Z,41.00
2018-03-30T17:36:05.127Z,40.40
2018-03-30T17:38:32.192Z,40.70
2018-03-30T17:40:59.279Z,40.80
2018-03-30T17:43:26.331Z,40.80
2018-03-30T17:45:53.413Z,40.70
2018-03-30T17:48:20.467Z,40.60
2018-03-30T17:50:47.544Z,40.60
2018-03-30T17:53:14.592Z,40.70
2018-03-30T17:55:41.692Z,40.60
2018-03-30T17:58:08.781Z,40.80
2018-03-30T18:00:35.827Z,40.80
2018-03-30T18:03:03.039Z,41.30
2018-03-30T18:05:30.075Z,41.60
2018-03-30T18:07:57.123Z,41.60
2018-03-30T18:10:24.156Z,41.60
2018-03-30T18:12:51.273Z,41.50
2018-03-30T18:15:18.308Z,41.40
2018-03-30T18:17:45.392Z,41.30
2018-03-30T18:20:12.438Z,41.50
2018-03-30T18:22:39.532Z,42.00
2018-03-30T18:25:06.592Z,42.60
2018-03-30T18:27:33.652Z,42.70
2018-03-30T18:30:01.006Z,42.80
2018-03-30T18:32:28.842Z,43.00
2018-03-30T18:34:55.934Z,42.90
2018-03-30T18:37:22.988Z,43.10
2018-03-30T18:39:50.071Z,43.30
2018-03-30T18:42:17.107Z,43.70
2018-03-30T18:44:44.556Z,43.80
2018-03-30T18:47:12.012Z,44.40
2018-03-30T18:49:39.076Z,46.30
2018-03-30T18:52:06.136Z,47.90
2018-03-30T18:54:33.225Z,49.50
2018-03-30T18:57:00.264Z,50.90
2018-03-30T18:59:28.148Z,52.50
2018-03-30T19:01:55.163Z,52.50
2018-03-30T19:04:22.376Z,52.40
2018-03-30T19:06:49.417Z,52.70
2018-03-30T19:09:16.480Z,53.50
2018-03-30T19:11:43.580Z,53.70
2018-03-30T19:14:10.611Z,54.10
2018-03-30T19:16:38.441Z,54.70
2018-03-30T19:19:05.512Z,54.70
2018-03-30T19:21:32.597Z,54.70
2018-03-30T19:23:59.624Z,55.00
2018-03-30T19:26:26.681Z,55.10
2018-03-30T19:28:54.541Z,55.50
2018-03-30T19:31:21.632Z,55.50
2018-03-30T19:33:48.798Z,55.70
2018-03-30T19:36:15.862Z,55.70
2018-03-30T19:38:42.908Z,56.00
2018-03-30T19:41:10.044Z,56.20
2018-03-30T19:43:37.067Z,56.50
2018-03-30T19:46:04.172Z,56.70
2018-03-30T19:48:31.189Z,57.10
2018-03-30T19:50:58.243Z,57.40
2018-03-30T19:53:25.359Z,57.40
2018-03-30T19:55:52.438Z,57.70
2018-03-30T19:58:19.456Z,57.90
2018-03-30T20:00:46.504Z,58.70
2018-03-30T20:03:13.891Z,59.70
2018-03-30T20:05:40.915Z,60.50
2018-03-30T20:08:08.034Z,61.20
2018-03-30T20:10:35.347Z,62.40
2018-03-30T20:13:02.487Z,62.30
2018-03-30T20:15:29.667Z,62.90
2018-03-30T20:17:56.701Z,63.80
2018-03-30T20:20:23.817Z,63.30
2018-03-30T20:22:50.868Z,63.60
2018-03-30T20:25:17.944Z,63.80
2018-03-30T20:27:45.031Z,64.10
2018-03-30T20:30:12.075Z,64.20
2018-03-30T20:32:39.143Z,63.90
2018-03-30T20:35:06.191Z,64.20
2018-03-30T20:37:33.239Z,64.00
2018-03-30T20:40:00.325Z,64.30
2018-03-30T20:42:27.465Z,64.60
2018-03-30T20:44:54.497Z,64.70
2018-03-30T20:47:21.554Z,65.10
2018-03-30T20:49:48.616Z,65.60
2018-03-30T20:52:15.648Z,65.60
2018-03-30T20:54:42.985Z,66.80
2018-03-30T20:57:10.016Z,66.60
2018-03-30T20:59:37.140Z,66.30
2018-03-30T21:02:04.192Z,66.90
2018-03-30T21:04:31.240Z,66.60
2018-03-30T21:06:58.529Z,66.70
2018-03-30T21:09:25.588Z,67.00
2018-03-30T21:11:52.950Z,67.40
2018-03-30T21:14:19.984Z,67.40
2018-03-30T21:16:47.047Z,67.50
2018-03-30T21:19:14.112Z,67.40
2018-03-30T21:21:41.144Z,67.40
2018-03-30T21:24:08.270Z,67.10
2018-03-30T21:26:35.343Z,67.10
2018-03-30T21:29:02.456Z,67.30
2018-03-30T21:31:29.542Z,67.80
2018-03-30T21:33:56.728Z,67.80
2018-03-30T21:36:23.800Z,68.00
2018-03-30T21:38:51.668Z,67.70
2018-03-30T21:41:18.705Z,67.70
2018-03-30T21:43:46.607Z,68.20
2018-03-30T21:46:13.659Z,68.00
2018-03-30T21:48:40.733Z,68.30
2018-03-30T21:51:07.867Z,67.80
2018-03-30T21:53:34.931Z,68.30
2018-03-30T21:56:01.974Z,68.10
2018-03-30T21:58:29.056Z,68.60
2018-03-30T22:00:56.148Z,68.30
2018-03-30T22:03:23.190Z,68.00
2018-03-30T22:05:50.309Z,67.80
2018-03-30T22:08:17.366Z,68.00
2018-03-30T22:10:44.468Z,68.20
2018-03-30T22:13:11.563Z,68.00
2018-03-30T22:15:38.633Z,68.00
2018-03-30T22:18:05.672Z,67.80
2018-03-30T22:20:32.735Z,68.00
2018-03-30T22:22:59.874Z,67.90
2018-03-30T22:25:26.919Z,67.60
2018-03-30T22:27:54.008Z,67.20
2018-03-30T22:30:21.038Z,67.00
2018-03-30T22:32:48.116Z,67.00
2018-03-30T22:35:15.217Z,67.00
2018-03-30T22:37:42.244Z,67.70
2018-03-30T22:40:09.312Z,66.70
2018-03-30T22:42:36.359Z,66.50
2018-03-30T22:45:03.407Z,66.30
2018-03-30T22:47:30.460Z,66.70
2018-03-30T22:49:57.597Z,66.30
2018-03-30T22:52:24.697Z,66.30
2018-03-30T22:54:51.745Z,66.20
2018-03-30T22:57:18.790Z,66.40
2018-03-30T22:59:45.893Z,66.30
2018-03-30T23:02:12.966Z,66.50
2018-03-30T23:04:39.990Z,66.40
2018-03-30T23:07:07.090Z,66.40
2018-03-30T23:09:34.184Z,66.60
2018-03-30T23:12:01.232Z,66.50
2018-03-30T23:14:28.284Z,66.40
2018-03-30T23:16:55.317Z,65.80
2018-03-30T23:19:22.421Z,66.00
2018-03-30T23:21:49.479Z,65.50
2018-03-30T23:24:17.271Z,65.70
2018-03-30T23:26:44.344Z,65.80
2018-03-30T23:29:11.599Z,65.80
2018-03-30T23:31:38.673Z,66.50
2018-03-30T23:34:05.690Z,66.30
2018-03-30T23:36:32.731Z,67.80
2018-03-30T23:38:59.821Z,66.90
2018-03-30T23:41:27.665Z,67.30
2018-03-30T23:43:54.784Z,68.00
2018-03-30T23:46:21.830Z,67.10
2018-03-30T23:48:48.875Z,66.40
2018-03-30T23:51:15.915Z,66.70
2018-03-30T23:53:42.997Z,66.80
2018-03-30T23:56:10.044Z,67.30
2018-03-30T23:58:37.100Z,66.90
